sensor_id;sensor_type;location;lat;lon;timestamp;P1;durP1;ratioP1;P2;durP2;ratioP2
25509;SDS011;13413;52.336;21.200;2022-10-16T00:01:20;24.50;;;19.90;;
25509;SDS011;13413;52.336;21.200;2022-10-16T00:04:42;26.00;;;20.00;;
25509;SDS011;13413;52.336;21.200;2022-10-16T00:08:01;26.60;;;19.70;;
25509;SDS011;13413;52.336;21.200;2022-10-16T00:11:21;27.40;;;20.30;;
25509;SDS011;13413;52.336;21.200;2022-10-16T00:14:42;25.10;;;20.10;;
25509;SDS011;13413;52.336;21.200;2022-10-16T00:18:03;21.90;;;17.80;;
25509;SDS011;13413;52.336;21.200;2022-10-16T00:21:23;26.10;;;19.00;;
25509;SDS011;13413;52.336;21.200;2022-10-16T00:25:02;26.60;;;19.20;;
25509;SDS011;13413;52.336;21.200;2022-10-16T00:28:22;26.30;;;18.80;;
25509;SDS011;13413;52.336;21.200;2022-10-16T00:31:41;29.20;;;18.70;;
25509;SDS011;13413;52.336;21.200;2022-10-16T00:35:00;22.70;;;18.30;;
25509;SDS011;13413;52.336;21.200;2022-10-16T00:38:20;25.50;;;20.30;;
25509;SDS011;13413;52.336;21.200;2022-10-16T00:41:39;30.90;;;19.50;;
25509;SDS011;13413;52.336;21.200;2022-10-16T00:44:58;27.10;;;19.40;;
25509;SDS011;13413;52.336;21.200;2022-10-16T00:48:19;26.60;;;19.90;;
25509;SDS011;13413;52.336;21.200;2022-10-16T00:51:40;27.90;;;21.50;;
25509;SDS011;13413;52.336;21.200;2022-10-16T00:55:03;26.60;;;20.60;;
25509;SDS011;13413;52.336;21.200;2022-10-16T00:58:27;24.70;;;20.40;;
25509;SDS011;13413;52.336;21.200;2022-10-16T01:02:00;28.10;;;21.30;;
25509;SDS011;13413;52.336;21.200;2022-10-16T01:05:20;28.80;;;21.10;;
25509;SDS011;13413;52.336;21.200;2022-10-16T01:08:44;28.80;;;21.10;;
25509;SDS011;13413;52.336;21.200;2022-10-16T01:12:10;28.10;;;21.90;;
25509;SDS011;13413;52.336;21.200;2022-10-16T01:15:41;24.90;;;21.40;;
25509;SDS011;13413;52.336;21.200;2022-10-16T01:19:19;24.30;;;20.10;;
25509;SDS011;13413;52.336;21.200;2022-10-16T01:26:36;26.30;;;22.30;;
25509;SDS011;13413;52.336;21.200;2022-10-16T01:30:04;32.50;;;24.50;;
25509;SDS011;13413;52.336;21.200;2022-10-16T01:33:28;30.30;;;23.70;;
25509;SDS011;13413;52.336;21.200;2022-10-16T01:37:09;32.20;;;24.30;;
25509;SDS011;13413;52.336;21.200;2022-10-16T01:40:33;29.50;;;24.00;;
25509;SDS011;13413;52.336;21.200;2022-10-16T01:43:56;30.70;;;23.40;;
25509;SDS011;13413;52.336;21.200;2022-10-16T01:47:19;36.20;;;23.00;;
25509;SDS011;13413;52.336;21.200;2022-10-16T01:50:42;32.20;;;23.70;;
25509;SDS011;13413;52.336;21.200;2022-10-16T01:54:16;31.10;;;23.60;;
25509;SDS011;13413;52.336;21.200;2022-10-16T01:57:38;33.10;;;24.50;;
25509;SDS011;13413;52.336;21.200;2022-10-16T02:01:01;35.30;;;24.20;;
25509;SDS011;13413;52.336;21.200;2022-10-16T02:04:24;33.80;;;25.70;;
25509;SDS011;13413;52.336;21.200;2022-10-16T02:07:48;28.70;;;24.40;;
25509;SDS011;13413;52.336;21.200;2022-10-16T02:11:08;34.80;;;25.20;;
25509;SDS011;13413;52.336;21.200;2022-10-16T02:14:27;34.00;;;25.10;;
25509;SDS011;13413;52.336;21.200;2022-10-16T02:17:47;34.10;;;25.60;;
25509;SDS011;13413;52.336;21.200;2022-10-16T02:21:07;33.10;;;25.50;;
25509;SDS011;13413;52.336;21.200;2022-10-16T02:24:35;31.70;;;23.80;;
25509;SDS011;13413;52.336;21.200;2022-10-16T02:31:22;34.30;;;25.50;;
25509;SDS011;13413;52.336;21.200;2022-10-16T02:38:07;36.40;;;26.50;;
25509;SDS011;13413;52.336;21.200;2022-10-16T02:41:27;33.40;;;26.80;;
25509;SDS011;13413;52.336;21.200;2022-10-16T02:44:46;39.40;;;28.50;;
25509;SDS011;13413;52.336;21.200;2022-10-16T02:48:08;34.10;;;27.70;;
25509;SDS011;13413;52.336;21.200;2022-10-16T02:51:28;34.00;;;27.40;;
25509;SDS011;13413;52.336;21.200;2022-10-16T02:54:47;38.60;;;27.10;;
25509;SDS011;13413;52.336;21.200;2022-10-16T02:58:06;37.20;;;27.30;;
25509;SDS011;13413;52.336;21.200;2022-10-16T03:01:26;34.80;;;27.90;;
25509;SDS011;13413;52.336;21.200;2022-10-16T03:04:45;34.60;;;27.70;;
25509;SDS011;13413;52.336;21.200;2022-10-16T03:08:05;35.30;;;25.90;;
25509;SDS011;13413;52.336;21.200;2022-10-16T03:11:24;36.70;;;27.70;;
25509;SDS011;13413;52.336;21.200;2022-10-16T03:14:44;38.50;;;27.10;;
25509;SDS011;13413;52.336;21.200;2022-10-16T03:18:03;38.50;;;27.50;;
25509;SDS011;13413;52.336;21.200;2022-10-16T03:21:23;33.60;;;27.40;;
25509;SDS011;13413;52.336;21.200;2022-10-16T03:24:43;38.10;;;27.30;;
25509;SDS011;13413;52.336;21.200;2022-10-16T03:28:02;34.20;;;27.60;;
25509;SDS011;13413;52.336;21.200;2022-10-16T03:31:21;34.40;;;25.20;;
25509;SDS011;13413;52.336;21.200;2022-10-16T03:34:40;37.80;;;26.90;;
25509;SDS011;13413;52.336;21.200;2022-10-16T03:37:59;36.70;;;27.40;;
25509;SDS011;13413;52.336;21.200;2022-10-16T03:41:19;34.50;;;26.70;;
25509;SDS011;13413;52.336;21.200;2022-10-16T03:44:39;44.30;;;27.20;;
25509;SDS011;13413;52.336;21.200;2022-10-16T03:51:32;33.70;;;26.20;;
25509;SDS011;13413;52.336;21.200;2022-10-16T03:54:51;32.40;;;25.90;;
25509;SDS011;13413;52.336;21.200;2022-10-16T03:58:10;35.50;;;26.70;;
25509;SDS011;13413;52.336;21.200;2022-10-16T04:01:29;32.30;;;25.20;;
25509;SDS011;13413;52.336;21.200;2022-10-16T04:04:48;36.00;;;27.90;;
25509;SDS011;13413;52.336;21.200;2022-10-16T04:08:07;36.00;;;25.30;;
25509;SDS011;13413;52.336;21.200;2022-10-16T04:11:26;35.70;;;26.50;;
25509;SDS011;13413;52.336;21.200;2022-10-16T04:14:46;33.70;;;25.70;;
25509;SDS011;13413;52.336;21.200;2022-10-16T04:18:05;35.70;;;26.50;;
25509;SDS011;13413;52.336;21.200;2022-10-16T04:21:24;35.40;;;25.10;;
25509;SDS011;13413;52.336;21.200;2022-10-16T04:24:43;32.70;;;25.40;;
25509;SDS011;13413;52.336;21.200;2022-10-16T04:28:03;40.50;;;24.50;;
25509;SDS011;13413;52.336;21.200;2022-10-16T04:31:42;31.60;;;24.90;;
25509;SDS011;13413;52.336;21.200;2022-10-16T04:35:01;36.30;;;25.40;;
25509;SDS011;13413;52.336;21.200;2022-10-16T04:38:19;35.50;;;25.90;;
25509;SDS011;13413;52.336;21.200;2022-10-16T04:41:39;40.20;;;25.20;;
25509;SDS011;13413;52.336;21.200;2022-10-16T04:45:01;35.40;;;25.80;;
25509;SDS011;13413;52.336;21.200;2022-10-16T04:48:20;30.90;;;25.00;;
25509;SDS011;13413;52.336;21.200;2022-10-16T04:51:40;32.50;;;25.60;;
25509;SDS011;13413;52.336;21.200;2022-10-16T04:55:00;33.80;;;25.20;;
25509;SDS011;13413;52.336;21.200;2022-10-16T04:58:19;36.50;;;25.20;;
25509;SDS011;13413;52.336;21.200;2022-10-16T05:01:39;34.50;;;26.20;;
25509;SDS011;13413;52.336;21.200;2022-10-16T05:04:59;30.70;;;24.60;;
25509;SDS011;13413;52.336;21.200;2022-10-16T05:08:19;31.20;;;24.70;;
25509;SDS011;13413;52.336;21.200;2022-10-16T05:11:38;30.50;;;24.10;;
25509;SDS011;13413;52.336;21.200;2022-10-16T05:14:58;31.40;;;24.30;;
25509;SDS011;13413;52.336;21.200;2022-10-16T05:18:17;33.80;;;26.30;;
25509;SDS011;13413;52.336;21.200;2022-10-16T05:21:36;33.70;;;26.90;;
25509;SDS011;13413;52.336;21.200;2022-10-16T05:24:55;34.00;;;26.10;;
25509;SDS011;13413;52.336;21.200;2022-10-16T05:31:50;33.80;;;25.30;;
25509;SDS011;13413;52.336;21.200;2022-10-16T05:35:10;31.30;;;24.10;;
25509;SDS011;13413;52.336;21.200;2022-10-16T05:38:30;27.00;;;23.10;;
25509;SDS011;13413;52.336;21.200;2022-10-16T05:41:50;33.10;;;24.10;;
25509;SDS011;13413;52.336;21.200;2022-10-16T05:45:09;30.10;;;22.50;;
25509;SDS011;13413;52.336;21.200;2022-10-16T05:48:29;29.20;;;22.80;;
25509;SDS011;13413;52.336;21.200;2022-10-16T05:51:49;30.00;;;23.30;;
25509;SDS011;13413;52.336;21.200;2022-10-16T05:55:09;30.10;;;23.10;;
25509;SDS011;13413;52.336;21.200;2022-10-16T05:58:30;29.40;;;22.20;;
25509;SDS011;13413;52.336;21.200;2022-10-16T06:01:50;31.20;;;24.50;;
25509;SDS011;13413;52.336;21.200;2022-10-16T06:05:09;30.30;;;23.90;;
25509;SDS011;13413;52.336;21.200;2022-10-16T06:08:29;31.00;;;23.70;;
25509;SDS011;13413;52.336;21.200;2022-10-16T06:11:48;29.50;;;21.90;;
25509;SDS011;13413;52.336;21.200;2022-10-16T06:15:08;29.70;;;21.90;;
25509;SDS011;13413;52.336;21.200;2022-10-16T06:18:28;30.10;;;22.40;;
25509;SDS011;13413;52.336;21.200;2022-10-16T06:21:49;29.20;;;22.30;;
25509;SDS011;13413;52.336;21.200;2022-10-16T06:25:09;27.50;;;21.90;;
25509;SDS011;13413;52.336;21.200;2022-10-16T06:28:28;32.20;;;23.10;;
25509;SDS011;13413;52.336;21.200;2022-10-16T06:31:48;25.10;;;21.80;;
25509;SDS011;13413;52.336;21.200;2022-10-16T06:35:07;27.50;;;21.30;;
25509;SDS011;13413;52.336;21.200;2022-10-16T06:38:26;29.10;;;21.10;;
25509;SDS011;13413;52.336;21.200;2022-10-16T06:41:59;26.50;;;20.80;;
25509;SDS011;13413;52.336;21.200;2022-10-16T06:45:19;24.80;;;20.30;;
25509;SDS011;13413;52.336;21.200;2022-10-16T06:48:38;30.40;;;21.80;;
25509;SDS011;13413;52.336;21.200;2022-10-16T06:51:57;29.20;;;21.00;;
25509;SDS011;13413;52.336;21.200;2022-10-16T06:55:17;26.60;;;21.10;;
25509;SDS011;13413;52.336;21.200;2022-10-16T06:58:36;24.10;;;20.30;;
25509;SDS011;13413;52.336;21.200;2022-10-16T07:01:55;30.20;;;20.70;;
25509;SDS011;13413;52.336;21.200;2022-10-16T07:05:14;27.00;;;21.80;;
25509;SDS011;13413;52.336;21.200;2022-10-16T07:12:06;25.10;;;20.20;;
25509;SDS011;13413;52.336;21.200;2022-10-16T07:15:26;27.50;;;20.10;;
25509;SDS011;13413;52.336;21.200;2022-10-16T07:18:46;23.60;;;19.70;;
25509;SDS011;13413;52.336;21.200;2022-10-16T07:22:06;26.00;;;19.70;;
25509;SDS011;13413;52.336;21.200;2022-10-16T07:25:25;24.70;;;19.10;;
25509;SDS011;13413;52.336;21.200;2022-10-16T07:28:44;27.30;;;20.20;;
25509;SDS011;13413;52.336;21.200;2022-10-16T07:32:03;22.30;;;18.80;;
25509;SDS011;13413;52.336;21.200;2022-10-16T07:35:23;24.00;;;18.80;;
25509;SDS011;13413;52.336;21.200;2022-10-16T07:38:43;22.20;;;18.80;;
25509;SDS011;13413;52.336;21.200;2022-10-16T07:42:03;24.50;;;20.00;;
25509;SDS011;13413;52.336;21.200;2022-10-16T07:45:23;25.40;;;19.90;;
25509;SDS011;13413;52.336;21.200;2022-10-16T07:48:43;22.50;;;16.30;;
25509;SDS011;13413;52.336;21.200;2022-10-16T07:52:03;23.50;;;18.10;;
25509;SDS011;13413;52.336;21.200;2022-10-16T07:55:22;24.50;;;18.60;;
25509;SDS011;13413;52.336;21.200;2022-10-16T08:02:03;25.00;;;18.30;;
25509;SDS011;13413;52.336;21.200;2022-10-16T08:05:23;23.00;;;18.90;;
25509;SDS011;13413;52.336;21.200;2022-10-16T08:12:15;25.10;;;19.30;;
25509;SDS011;13413;52.336;21.200;2022-10-16T08:15:35;22.20;;;18.50;;
25509;SDS011;13413;52.336;21.200;2022-10-16T08:18:55;20.40;;;17.80;;
25509;SDS011;13413;52.336;21.200;2022-10-16T08:22:14;24.80;;;17.80;;
25509;SDS011;13413;52.336;21.200;2022-10-16T08:25:35;23.50;;;18.30;;
25509;SDS011;13413;52.336;21.200;2022-10-16T08:28:54;25.60;;;17.90;;
25509;SDS011;13413;52.336;21.200;2022-10-16T08:32:13;23.50;;;18.20;;
25509;SDS011;13413;52.336;21.200;2022-10-16T08:35:33;22.90;;;18.60;;
25509;SDS011;13413;52.336;21.200;2022-10-16T08:38:53;23.60;;;17.40;;
25509;SDS011;13413;52.336;21.200;2022-10-16T08:42:15;21.80;;;18.40;;
25509;SDS011;13413;52.336;21.200;2022-10-16T08:49:24;21.40;;;17.00;;
25509;SDS011;13413;52.336;21.200;2022-10-16T08:52:43;19.40;;;16.80;;
25509;SDS011;13413;52.336;21.200;2022-10-16T08:56:03;22.00;;;17.70;;
25509;SDS011;13413;52.336;21.200;2022-10-16T08:59:24;20.60;;;16.40;;
25509;SDS011;13413;52.336;21.200;2022-10-16T09:02:48;20.10;;;16.10;;
25509;SDS011;13413;52.336;21.200;2022-10-16T09:10:03;18.30;;;16.10;;
25509;SDS011;13413;52.336;21.200;2022-10-16T09:13:35;20.60;;;15.40;;
25509;SDS011;13413;52.336;21.200;2022-10-16T09:17:01;23.20;;;15.60;;
25509;SDS011;13413;52.336;21.200;2022-10-16T09:20:33;19.80;;;16.20;;
25509;SDS011;13413;52.336;21.200;2022-10-16T09:24:04;17.40;;;15.10;;
25509;SDS011;13413;52.336;21.200;2022-10-16T09:27:28;16.90;;;14.30;;
25509;SDS011;13413;52.336;21.200;2022-10-16T09:30:48;17.90;;;15.50;;
25509;SDS011;13413;52.336;21.200;2022-10-16T09:34:11;18.40;;;14.30;;
25509;SDS011;13413;52.336;21.200;2022-10-16T09:37:41;16.20;;;14.50;;
25509;SDS011;13413;52.336;21.200;2022-10-16T09:41:10;18.00;;;14.10;;
25509;SDS011;13413;52.336;21.200;2022-10-16T09:44:37;18.70;;;14.10;;
25509;SDS011;13413;52.336;21.200;2022-10-16T09:48:00;19.90;;;14.80;;
25509;SDS011;13413;52.336;21.200;2022-10-16T09:51:29;15.70;;;14.10;;
25509;SDS011;13413;52.336;21.200;2022-10-16T09:54:51;17.10;;;14.10;;
25509;SDS011;13413;52.336;21.200;2022-10-16T09:58:13;17.60;;;14.60;;
25509;SDS011;13413;52.336;21.200;2022-10-16T10:01:36;16.60;;;14.70;;
25509;SDS011;13413;52.336;21.200;2022-10-16T10:04:59;17.30;;;14.70;;
25509;SDS011;13413;52.336;21.200;2022-10-16T10:08:18;22.00;;;14.50;;
25509;SDS011;13413;52.336;21.200;2022-10-16T10:15:17;20.10;;;14.50;;
25509;SDS011;13413;52.336;21.200;2022-10-16T10:18:37;17.20;;;13.80;;
25509;SDS011;13413;52.336;21.200;2022-10-16T10:21:57;16.60;;;13.70;;
25509;SDS011;13413;52.336;21.200;2022-10-16T10:25:18;16.50;;;14.20;;
25509;SDS011;13413;52.336;21.200;2022-10-16T10:28:46;15.60;;;14.00;;
25509;SDS011;13413;52.336;21.200;2022-10-16T11:53:16;14.40;;;12.50;;
25509;SDS011;13413;52.336;21.200;2022-10-16T11:56:41;12.40;;;11.20;;
25509;SDS011;13413;52.336;21.200;2022-10-16T12:00:20;15.00;;;12.30;;
25509;SDS011;13413;52.336;21.200;2022-10-16T12:03:41;15.10;;;11.60;;
25509;SDS011;13413;52.336;21.200;2022-10-16T12:07:04;14.40;;;11.90;;
25509;SDS011;13413;52.336;21.200;2022-10-16T12:10:18;13.70;;;11.20;;
25509;SDS011;13413;52.336;21.200;2022-10-16T12:13:47;14.70;;;11.80;;
25509;SDS011;13413;52.336;21.200;2022-10-16T12:17:27;14.40;;;11.40;;
25509;SDS011;13413;52.336;21.200;2022-10-16T12:21:02;13.90;;;11.20;;
25509;SDS011;13413;52.336;21.200;2022-10-16T12:24:36;15.20;;;10.70;;
25509;SDS011;13413;52.336;21.200;2022-10-16T12:28:00;11.90;;;10.50;;
25509;SDS011;13413;52.336;21.200;2022-10-16T12:31:21;13.50;;;11.00;;
25509;SDS011;13413;52.336;21.200;2022-10-16T12:34:55;12.00;;;10.50;;
25509;SDS011;13413;52.336;21.200;2022-10-16T12:38:30;14.40;;;9.40;;
25509;SDS011;13413;52.336;21.200;2022-10-16T12:42:02;13.00;;;10.90;;
25509;SDS011;13413;52.336;21.200;2022-10-16T12:45:43;13.30;;;10.50;;
25509;SDS011;13413;52.336;21.200;2022-10-16T12:49:14;11.60;;;10.10;;
25509;SDS011;13413;52.336;21.200;2022-10-16T12:52:59;13.40;;;10.70;;
25509;SDS011;13413;52.336;21.200;2022-10-16T12:56:21;11.10;;;9.90;;
25509;SDS011;13413;52.336;21.200;2022-10-16T13:00:17;13.70;;;11.00;;
25509;SDS011;13413;52.336;21.200;2022-10-16T13:04:06;13.90;;;10.40;;
25509;SDS011;13413;52.336;21.200;2022-10-16T13:07:42;13.80;;;11.10;;
25509;SDS011;13413;52.336;21.200;2022-10-16T13:11:12;13.80;;;12.00;;
25509;SDS011;13413;52.336;21.200;2022-10-16T13:14:58;14.40;;;10.90;;
25509;SDS011;13413;52.336;21.200;2022-10-16T13:18:46;12.60;;;10.60;;
25509;SDS011;13413;52.336;21.200;2022-10-16T13:22:32;12.70;;;11.40;;
25509;SDS011;13413;52.336;21.200;2022-10-16T13:26:04;13.70;;;11.80;;
25509;SDS011;13413;52.336;21.200;2022-10-16T13:29:50;13.20;;;11.50;;
25509;SDS011;13413;52.336;21.200;2022-10-16T13:33:19;14.50;;;11.50;;
25509;SDS011;13413;52.336;21.200;2022-10-16T13:36:52;14.30;;;12.20;;
25509;SDS011;13413;52.336;21.200;2022-10-16T13:40:23;14.60;;;11.70;;
25509;SDS011;13413;52.336;21.200;2022-10-16T13:43:44;15.20;;;11.80;;
25509;SDS011;13413;52.336;21.200;2022-10-16T13:47:11;21.40;;;13.00;;
25509;SDS011;13413;52.336;21.200;2022-10-16T13:50:35;16.50;;;13.00;;
25509;SDS011;13413;52.336;21.200;2022-10-16T13:53:56;16.90;;;12.40;;
25509;SDS011;13413;52.336;21.200;2022-10-16T13:57:15;14.20;;;12.40;;
25509;SDS011;13413;52.336;21.200;2022-10-16T14:00:39;15.20;;;12.30;;
25509;SDS011;13413;52.336;21.200;2022-10-16T14:04:31;14.70;;;12.00;;
25509;SDS011;13413;52.336;21.200;2022-10-16T14:07:51;14.50;;;11.30;;
25509;SDS011;13413;52.336;21.200;2022-10-16T14:11:12;16.10;;;11.70;;
25509;SDS011;13413;52.336;21.200;2022-10-16T14:14:51;15.10;;;12.90;;
25509;SDS011;13413;52.336;21.200;2022-10-16T14:18:26;15.80;;;13.50;;
25509;SDS011;13413;52.336;21.200;2022-10-16T14:21:46;18.50;;;14.60;;
25509;SDS011;13413;52.336;21.200;2022-10-16T14:25:18;15.80;;;13.80;;
25509;SDS011;13413;52.336;21.200;2022-10-16T14:29:03;16.70;;;13.10;;
25509;SDS011;13413;52.336;21.200;2022-10-16T14:32:36;17.40;;;13.50;;
25509;SDS011;13413;52.336;21.200;2022-10-16T14:40:31;15.80;;;13.70;;
25509;SDS011;13413;52.336;21.200;2022-10-16T14:43:53;15.20;;;11.60;;
25509;SDS011;13413;52.336;21.200;2022-10-16T14:47:25;14.50;;;12.20;;
25509;SDS011;13413;52.336;21.200;2022-10-16T14:50:48;18.50;;;12.70;;
25509;SDS011;13413;52.336;21.200;2022-10-16T14:54:08;15.60;;;12.80;;
25509;SDS011;13413;52.336;21.200;2022-10-16T14:57:34;13.90;;;12.50;;
25509;SDS011;13413;52.336;21.200;2022-10-16T15:00:56;14.70;;;13.20;;
25509;SDS011;13413;52.336;21.200;2022-10-16T15:04:31;13.30;;;11.80;;
25509;SDS011;13413;52.336;21.200;2022-10-16T15:07:51;17.40;;;12.70;;
25509;SDS011;13413;52.336;21.200;2022-10-16T15:11:11;17.60;;;12.20;;
25509;SDS011;13413;52.336;21.200;2022-10-16T15:14:47;15.10;;;13.50;;
25509;SDS011;13413;52.336;21.200;2022-10-16T15:18:20;17.30;;;12.80;;
25509;SDS011;13413;52.336;21.200;2022-10-16T15:21:40;13.20;;;11.60;;
25509;SDS011;13413;52.336;21.200;2022-10-16T15:25:27;13.10;;;11.70;;
25509;SDS011;13413;52.336;21.200;2022-10-16T15:28:50;18.30;;;13.00;;
25509;SDS011;13413;52.336;21.200;2022-10-16T15:32:09;14.90;;;12.70;;
25509;SDS011;13413;52.336;21.200;2022-10-16T15:35:36;15.10;;;12.20;;
25509;SDS011;13413;52.336;21.200;2022-10-16T15:38:56;17.10;;;13.50;;
25509;SDS011;13413;52.336;21.200;2022-10-16T15:42:17;14.90;;;12.70;;
25509;SDS011;13413;52.336;21.200;2022-10-16T15:45:36;15.20;;;13.60;;
25509;SDS011;13413;52.336;21.200;2022-10-16T15:48:57;16.40;;;14.60;;
25509;SDS011;13413;52.336;21.200;2022-10-16T15:52:18;16.10;;;14.30;;
25509;SDS011;13413;52.336;21.200;2022-10-16T15:55:44;20.60;;;15.20;;
25509;SDS011;13413;52.336;21.200;2022-10-16T15:59:05;18.20;;;15.30;;
25509;SDS011;13413;52.336;21.200;2022-10-16T16:02:33;18.10;;;16.00;;
25509;SDS011;13413;52.336;21.200;2022-10-16T16:05:53;16.60;;;14.80;;
25509;SDS011;13413;52.336;21.200;2022-10-16T16:19:45;27.30;;;17.70;;
25509;SDS011;13413;52.336;21.200;2022-10-16T16:23:05;22.70;;;17.30;;
25509;SDS011;13413;52.336;21.200;2022-10-16T16:26:25;24.50;;;17.40;;
25509;SDS011;13413;52.336;21.200;2022-10-16T16:29:47;23.90;;;17.70;;
25509;SDS011;13413;52.336;21.200;2022-10-16T16:40:19;28.10;;;20.50;;
25509;SDS011;13413;52.336;21.200;2022-10-16T16:43:39;25.80;;;18.10;;
25509;SDS011;13413;52.336;21.200;2022-10-16T16:46:59;19.80;;;17.10;;
25509;SDS011;13413;52.336;21.200;2022-10-16T16:50:18;22.10;;;16.20;;
25509;SDS011;13413;52.336;21.200;2022-10-16T16:53:52;19.00;;;14.70;;
25509;SDS011;13413;52.336;21.200;2022-10-16T16:57:12;18.60;;;15.00;;
25509;SDS011;13413;52.336;21.200;2022-10-16T17:14:12;28.30;;;18.70;;
25509;SDS011;13413;52.336;21.200;2022-10-16T17:17:33;21.40;;;17.40;;
25509;SDS011;13413;52.336;21.200;2022-10-16T17:20:53;21.70;;;18.20;;
25509;SDS011;13413;52.336;21.200;2022-10-16T17:24:16;24.00;;;19.70;;
25509;SDS011;13413;52.336;21.200;2022-10-16T17:39:07;25.20;;;20.10;;
25509;SDS011;13413;52.336;21.200;2022-10-16T17:42:28;27.20;;;20.70;;
25509;SDS011;13413;52.336;21.200;2022-10-16T17:45:48;23.70;;;20.40;;
25509;SDS011;13413;52.336;21.200;2022-10-16T17:49:08;26.50;;;20.70;;
25509;SDS011;13413;52.336;21.200;2022-10-16T17:52:29;29.60;;;22.70;;
25509;SDS011;13413;52.336;21.200;2022-10-16T17:55:48;30.90;;;22.80;;
25509;SDS011;13413;52.336;21.200;2022-10-16T17:59:21;33.20;;;23.70;;
25509;SDS011;13413;52.336;21.200;2022-10-16T18:02:41;36.20;;;25.90;;
25509;SDS011;13413;52.336;21.200;2022-10-16T18:06:00;43.90;;;27.50;;
25509;SDS011;13413;52.336;21.200;2022-10-16T18:09:33;32.50;;;23.50;;
25509;SDS011;13413;52.336;21.200;2022-10-16T18:12:53;27.50;;;20.90;;
25509;SDS011;13413;52.336;21.200;2022-10-16T18:16:13;23.90;;;20.00;;
25509;SDS011;13413;52.336;21.200;2022-10-16T18:19:41;25.20;;;20.40;;
25509;SDS011;13413;52.336;21.200;2022-10-16T18:23:14;28.00;;;21.20;;
25509;SDS011;13413;52.336;21.200;2022-10-16T18:39:46;31.60;;;22.80;;
25509;SDS011;13413;52.336;21.200;2022-10-16T18:43:06;29.40;;;23.90;;
25509;SDS011;13413;52.336;21.200;2022-10-16T18:46:27;29.20;;;24.00;;
25509;SDS011;13413;52.336;21.200;2022-10-16T18:50:01;30.40;;;22.70;;
25509;SDS011;13413;52.336;21.200;2022-10-16T19:00:20;29.30;;;23.00;;
25509;SDS011;13413;52.336;21.200;2022-10-16T19:03:40;28.40;;;23.20;;
25509;SDS011;13413;52.336;21.200;2022-10-16T19:07:00;27.60;;;23.00;;
25509;SDS011;13413;52.336;21.200;2022-10-16T19:10:25;30.10;;;22.60;;
25509;SDS011;13413;52.336;21.200;2022-10-16T19:13:59;26.50;;;22.80;;
25509;SDS011;13413;52.336;21.200;2022-10-16T19:17:18;28.30;;;22.60;;
25509;SDS011;13413;52.336;21.200;2022-10-16T19:20:45;29.70;;;22.90;;
25509;SDS011;13413;52.336;21.200;2022-10-16T19:24:20;29.10;;;23.60;;
25509;SDS011;13413;52.336;21.200;2022-10-16T19:27:46;27.90;;;23.10;;
25509;SDS011;13413;52.336;21.200;2022-10-16T19:31:05;31.30;;;25.00;;
25509;SDS011;13413;52.336;21.200;2022-10-16T19:34:40;33.90;;;25.90;;
25509;SDS011;13413;52.336;21.200;2022-10-16T19:38:14;29.70;;;24.40;;
25509;SDS011;13413;52.336;21.200;2022-10-16T19:41:34;33.10;;;25.00;;
25509;SDS011;13413;52.336;21.200;2022-10-16T19:45:28;31.20;;;25.00;;
25509;SDS011;13413;52.336;21.200;2022-10-16T19:48:52;29.90;;;24.80;;
25509;SDS011;13413;52.336;21.200;2022-10-16T19:52:26;35.90;;;27.00;;
25509;SDS011;13413;52.336;21.200;2022-10-16T19:55:50;33.00;;;24.40;;
25509;SDS011;13413;52.336;21.200;2022-10-16T19:59:23;30.10;;;25.30;;
25509;SDS011;13413;52.336;21.200;2022-10-16T20:02:56;28.40;;;24.10;;
25509;SDS011;13413;52.336;21.200;2022-10-16T20:06:16;30.20;;;25.60;;
25509;SDS011;13413;52.336;21.200;2022-10-16T20:09:37;31.50;;;25.40;;
25509;SDS011;13413;52.336;21.200;2022-10-16T20:12:56;31.60;;;24.60;;
25509;SDS011;13413;52.336;21.200;2022-10-16T20:16:16;31.70;;;25.80;;
25509;SDS011;13413;52.336;21.200;2022-10-16T20:19:57;36.20;;;27.60;;
25509;SDS011;13413;52.336;21.200;2022-10-16T20:23:17;28.70;;;25.20;;
25509;SDS011;13413;52.336;21.200;2022-10-16T20:26:37;30.30;;;26.40;;
25509;SDS011;13413;52.336;21.200;2022-10-16T20:30:11;30.60;;;25.70;;
25509;SDS011;13413;52.336;21.200;2022-10-16T20:33:31;28.60;;;24.60;;
25509;SDS011;13413;52.336;21.200;2022-10-16T20:40:22;32.20;;;25.00;;
25509;SDS011;13413;52.336;21.200;2022-10-16T20:43:56;29.20;;;24.20;;
25509;SDS011;13413;52.336;21.200;2022-10-16T20:51:11;31.40;;;24.90;;
25509;SDS011;13413;52.336;21.200;2022-10-16T20:54:43;30.10;;;24.10;;
25509;SDS011;13413;52.336;21.200;2022-10-16T20:58:17;31.70;;;24.20;;
25509;SDS011;13413;52.336;21.200;2022-10-16T21:01:37;29.80;;;24.30;;
25509;SDS011;13413;52.336;21.200;2022-10-16T21:05:11;30.50;;;24.50;;
25509;SDS011;13413;52.336;21.200;2022-10-16T21:08:34;33.00;;;25.50;;
25509;SDS011;13413;52.336;21.200;2022-10-16T21:12:02;28.80;;;24.20;;
25509;SDS011;13413;52.336;21.200;2022-10-16T21:20:06;31.10;;;24.60;;
25509;SDS011;13413;52.336;21.200;2022-10-16T21:23:26;32.80;;;26.40;;
25509;SDS011;13413;52.336;21.200;2022-10-16T21:26:45;35.20;;;26.30;;
25509;SDS011;13413;52.336;21.200;2022-10-16T21:30:20;36.40;;;27.70;;
25509;SDS011;13413;52.336;21.200;2022-10-16T21:33:40;31.70;;;25.40;;
25509;SDS011;13413;52.336;21.200;2022-10-16T21:36:59;26.90;;;24.00;;
25509;SDS011;13413;52.336;21.200;2022-10-16T21:40:19;33.00;;;24.90;;
25509;SDS011;13413;52.336;21.200;2022-10-16T21:43:52;30.60;;;24.90;;
25509;SDS011;13413;52.336;21.200;2022-10-16T21:47:13;38.10;;;27.90;;
25509;SDS011;13413;52.336;21.200;2022-10-16T21:50:48;32.90;;;27.30;;
25509;SDS011;13413;52.336;21.200;2022-10-16T21:54:10;34.00;;;27.70;;
25509;SDS011;13413;52.336;21.200;2022-10-16T21:57:32;34.00;;;27.30;;
25509;SDS011;13413;52.336;21.200;2022-10-16T22:00:51;32.70;;;25.40;;
25509;SDS011;13413;52.336;21.200;2022-10-16T22:14:42;36.50;;;25.20;;
25509;SDS011;13413;52.336;21.200;2022-10-16T22:18:05;32.90;;;26.00;;
25509;SDS011;13413;52.336;21.200;2022-10-16T22:21:25;39.40;;;27.10;;
25509;SDS011;13413;52.336;21.200;2022-10-16T22:24:58;29.20;;;24.50;;
25509;SDS011;13413;52.336;21.200;2022-10-16T22:30:52;32.90;;;27.30;;
25509;SDS011;13413;52.336;21.200;2022-10-16T22:34:12;32.70;;;26.00;;
25509;SDS011;13413;52.336;21.200;2022-10-16T22:37:32;29.10;;;24.40;;
25509;SDS011;13413;52.336;21.200;2022-10-16T22:41:01;32.00;;;25.80;;
25509;SDS011;13413;52.336;21.200;2022-10-16T22:50:11;27.20;;;24.10;;
25509;SDS011;13413;52.336;21.200;2022-10-16T22:53:31;32.20;;;23.70;;
25509;SDS011;13413;52.336;21.200;2022-10-16T22:56:57;29.70;;;23.10;;
25509;SDS011;13413;52.336;21.200;2022-10-16T23:00:32;32.00;;;24.20;;
25509;SDS011;13413;52.336;21.200;2022-10-16T23:03:52;29.50;;;24.10;;
25509;SDS011;13413;52.336;21.200;2022-10-16T23:07:14;29.10;;;23.00;;
25509;SDS011;13413;52.336;21.200;2022-10-16T23:10:41;28.20;;;22.80;;
25509;SDS011;13413;52.336;21.200;2022-10-16T23:14:19;30.30;;;23.20;;